Quinsam — VY6800 — position and weather

sailwx.info

Track history (hours):
 
Tides and Currents Weather Stations Pressure Air Temp Water Temp Dewpoint Dewpoint Depression Visibility Wind Speed Wind Dir Waves Ship Positions

Quinsam

Last reported at 2015-Jul-04 23:34 UTC. Time now 2015-Jul-05 00:11 UTC.
Position N 49°10' W 123°54'.

Length 88 m; draft 1.5 m.

Type: Ship. MMSI: 316001266.

Date/timePositionNaut miles runAvg speedWind from/ knotsBaromVisibWave heightAir tempDewpointWater temp
2015-Jul-04 23:34N 49°10' W 123°54'1 1.1
2015-Jul-04 22:34N 49°10' W 123°56'3 2.4
2015-Jul-04 21:21N 49°11' W 123°52'1 0.6
2015-Jul-04 20:34N 49°11' W 123°52'1 0.5
2015-Jul-04 19:33N 49°11' W 123°52'2 2.1
2015-Jul-04 18:33N 49°10' W 123°55'1 0.8
2015-Jul-04 17:33N 49°10' W 123°56'1 0.6
2015-Jul-04 16:34N 49°10' W 123°55'2 1.9
2015-Jul-04 15:33N 49°11' W 123°52'0 0.5
2015-Jul-04 14:33N 49°11' W 123°52'3 2.9
2015-Jul-04 13:34N 49°10' W 123°56'3 2.9
2015-Jul-04 12:33N 49°11' W 123°52'0 0.0
2015-Jul-04 11:27N 49°11' W 123°52'0 0.0
2015-Jul-04 10:33N 49°11' W 123°52'0 0.0
2015-Jul-04 09:15N 49°11' W 123°52'0 0.0
2015-Jul-04 08:33N 49°11' W 123°52'0 0.0
2015-Jul-04 07:24N 49°11' W 123°52'0 0.0
2015-Jul-04 06:33N 49°11' W 123°52'0 0.1
2015-Jul-04 05:33N 49°11' W 123°52'0 0.1
2015-Jul-04 04:33N 49°11' W 123°52'0 0.0
2015-Jul-04 03:31N 49°11' W 123°52'2 2.5
2015-Jul-04 02:33N 49°10' W 123°55'1 1.1
2015-Jul-04 01:33N 49°10' W 123°53'1 1.3
2015-Jul-04 00:33N 49°11' W 123°52'1 1.4
2015-Jul-03 23:33N 49°10' W 123°54'2 1.5
2015-Jul-03 22:33N 49°10' W 123°56'1 1.0
2015-Jul-03 21:33N 49°10' W 123°54'2 1.9
2015-Jul-03 20:33N 49°11' W 123°52'0 0.0
2015-Jul-03 19:33N 49°11' W 123°52'2 2.3
2015-Jul-03 18:33N 49°10' W 123°55'1 0.6
2015-Jul-03 17:33N 49°10' W 123°56'1 1.3
2015-Jul-03 16:33N 49°10' W 123°54'2 1.6
2015-Jul-03 15:33N 49°11' W 123°52'0 0.0
2015-Jul-03 14:31N 49°11' W 123°52'2 2.6
2015-Jul-03 13:33N 49°10' W 123°55'2 2.3
2015-Jul-03 12:30N 49°11' W 123°52'0 0.0
2015-Jul-03 11:33N 49°11' W 123°52'0 0.0
2015-Jul-03 10:33N 49°11' W 123°52'0 0.0
2015-Jul-03 09:33N 49°11' W 123°52'0 0.0
2015-Jul-03 08:24N 49°11' W 123°52'0 0.0
2015-Jul-03 07:30N 49°11' W 123°52'0 0.0
2015-Jul-03 06:30N 49°11' W 123°52'0 0.0
2015-Jul-03 05:33N 49°11' W 123°52'0 0.0
2015-Jul-03 04:33N 49°11' W 123°52'1 1.1
2015-Jul-03 03:33N 49°10' W 123°53'2 1.5
2015-Jul-03 02:33N 49°10' W 123°56'0 0.2
2015-Jul-03 01:33N 49°10' W 123°56'0 0.0
2015-Jul-03 00:33N 49°10' W 123°56'3 2.8
2015-Jul-02 23:34N 49°11' W 123°52'0 0.1
2015-Jul-02 22:33N 49°11' W 123°52'2 2.5
2015-Jul-02 21:34N 49°10' W 123°55'0 0.5
2015-Jul-02 20:33N 49°10' W 123°56'3 2.9
2015-Jul-02 19:33N 49°11' W 123°52'0 0.0
2015-Jul-02 18:33N 49°11' W 123°52'3 2.6
2015-Jul-02 17:34N 49°10' W 123°55'0 0.3
2015-Jul-02 16:32N 49°10' W 123°56'3 2.9
2015-Jul-02 15:34N 49°11' W 123°52'0 0.1
2015-Jul-02 14:31N 49°11' W 123°52'2 2.5
2015-Jul-02 13:33N 49°10' W 123°55'2 2.1
2015-Jul-02 12:27N 49°11' W 123°52'0 0.0
2015-Jul-02 11:33N 49°11' W 123°52'0 0.0
2015-Jul-02 10:12N 49°11' W 123°52'0 0.0
2015-Jul-02 09:30N 49°11' W 123°52'0 0.0
2015-Jul-02 08:33N 49°11' W 123°52'0 0.0
2015-Jul-02 07:33N 49°11' W 123°52'0 0.0
2015-Jul-02 06:26N 49°11' W 123°52'3 3.3
2015-Jul-02 05:33N 49°10' W 123°56'3 2.5
2015-Jul-02 04:33N 49°11' W 123°52'0 0.3
2015-Jul-02 03:33N 49°11' W 123°53'0 0.0
2015-Jul-02 02:33N 49°11' W 123°53'1 0.7
2015-Jul-02 01:33N 49°11' W 123°52'0 0.0
2015-Jul-02 00:33N 49°11' W 123°52'1 1.3
2015-Jul-01 23:33N 49°10' W 123°54'2 1.6
2015-Jul-01 22:33N 49°10' W 123°56'1 1.1
2015-Jul-01 21:33N 49°10' W 123°54'2 1.7
2015-Jul-01 20:31N 49°11' W 123°52'0 0.1
2015-Jul-01 19:32N 49°11' W 123°52'2 1.8
2015-Jul-01 18:33N 49°10' W 123°54'1 1.1
2015-Jul-01 17:29N 49°10' W 123°56'1 1.0
2015-Jul-01 16:33N 49°10' W 123°54'2 1.9
2015-Jul-01 15:31N 49°11' W 123°52'0 0.0
2015-Jul-01 14:14N 49°11' W 123°52'2 3.3
2015-Jul-01 13:33N 49°10' W 123°55'2 2.2
2015-Jul-01 12:32N 49°11' W 123°52'0 0.0
2015-Jul-01 10:14N 49°11' W 123°52'0 0.0
2015-Jul-01 09:29N 49°11' W 123°52'0 0.0
2015-Jul-01 08:29N 49°11' W 123°52'0 0.0
2015-Jul-01 07:29N 49°11' W 123°52'0 0.0
2015-Jul-01 06:32N 49°11' W 123°52'0 0.0
2015-Jul-01 05:32N 49°11' W 123°52'0 0.0
2015-Jul-01 04:32N 49°11' W 123°52'1 0.9
2015-Jul-01 03:33N 49°10' W 123°53'2 2.0
2015-Jul-01 02:33N 49°10' W 123°56'1 1.0
2015-Jul-01 01:33N 49°10' W 123°54'2 1.7
2015-Jul-01 00:33N 49°11' W 123°52'0 0.3
2015-Jun-30 23:33N 49°11' W 123°52'1 1.4
2015-Jun-30 22:33N 49°10' W 123°54'1 1.5
2015-Jun-30 21:33N 49°10' W 123°56'1 1.0
2015-Jun-30 20:33N 49°10' W 123°54'2 2.0
2015-Jun-30 19:33N 49°11' W 123°52'2 2.1
2015-Jun-30 18:33N 49°10' W 123°55'1 0.7
2015-Jun-30 17:33N 49°10' W 123°56'1 0.6
2015-Jun-30 16:33N 49°10' W 123°55'2 2.3
2015-Jun-30 15:33N 49°11' W 123°52'0 0.1
2015-Jun-30 14:33N 49°11' W 123°52'2 2.4
2015-Jun-30 13:33N 49°10' W 123°55'2 2.1
2015-Jun-30 12:22N 49°11' W 123°52'0 0.0
2015-Jun-30 11:28N 49°11' W 123°52'0 0.0
2015-Jun-30 07:28N 49°11' W 123°52'0 0.0
2015-Jun-30 06:28N 49°11' W 123°52'1 0.6
2015-Jun-30 05:34N 49°11' W 123°52'0 0.1
2015-Jun-30 04:33N 49°11' W 123°52'1 0.6
2015-Jun-30 03:33N 49°10' W 123°53'1 0.7
2015-Jun-30 02:34N 49°11' W 123°52'0 0.3
2015-Jun-30 01:33N 49°11' W 123°52'0 0.0
2015-Jun-30 00:27N 49°11' W 123°52'1 1.1
2015-Jun-29 23:33N 49°10' W 123°53'2 1.9
2015-Jun-29 22:34N 49°10' W 123°56'0 0.0
2015-Jun-29 21:31N 49°10' W 123°56'2 1.7
2015-Jun-29 20:33N 49°11' W 123°54'1 1.3
2015-Jun-29 19:33N 49°11' W 123°52'2 1.7
2015-Jun-29 18:33N 49°10' W 123°54'1 1.2
2015-Jun-29 17:33N 49°10' W 123°56'1 0.9
2015-Jun-29 16:34N 49°10' W 123°54'2 2.0
2015-Jun-29 15:33N 49°11' W 123°52'0 0.0
2015-Jun-29 14:32N 49°11' W 123°52'3 2.8
2015-Jun-29 13:33N 49°10' W 123°56'3 2.4
2015-Jun-29 12:26N 49°11' W 123°52'0 0.0
2015-Jun-29 09:08N 49°11' W 123°52'0 0.0
2015-Jun-29 08:08N 49°11' W 123°52'0 0.0
2015-Jun-29 06:26N 49°11' W 123°52'1 0.6
2015-Jun-29 05:33N 49°11' W 123°52'1 0.4
2015-Jun-29 04:24N 49°11' W 123°52'1 1.1
2015-Jun-29 03:33N 49°11' W 123°53'0 0.5
2015-Jun-29 02:33N 49°11' W 123°52'1 0.5
2015-Jun-29 01:33N 49°11' W 123°52'0 0.0
2015-Jun-29 00:32N 49°11' W 123°52'2 1.8
2015-Jun-28 23:33N 49°10' W 123°54'1 1.0
2015-Jun-28 22:26N 49°10' W 123°56'3 3.3
2015-Jun-28 21:33N 49°11' W 123°52'0 0.0
2015-Jun-28 20:33N 49°11' W 123°52'0 0.0
2015-Jun-28 19:31N 49°11' W 123°52'2 1.9
2015-Jun-28 18:33N 49°10' W 123°54'1 1.0
2015-Jun-28 17:26N 49°10' W 123°56'1 1.1
2015-Jun-28 16:33N 49°10' W 123°54'1 1.3
2015-Jun-28 15:28N 49°11' W 123°52'1 1.2
2015-Jun-28 14:33N 49°11' W 123°54'1 0.9
2015-Jun-28 13:33N 49°10' W 123°55'2 2.0
2015-Jun-28 12:23N 49°11' W 123°52'0 0.0
2015-Jun-28 10:29N 49°11' W 123°52'0 0.0
2015-Jun-28 06:29N 49°11' W 123°52'0 0.0
2015-Jun-28 05:24N 49°11' W 123°52'0 0.2
2015-Jun-28 04:32N 49°11' W 123°52'1 1.0
2015-Jun-28 03:33N 49°10' W 123°53'0 0.4
2015-Jun-28 02:29N 49°11' W 123°53'0 0.3
2015-Jun-28 01:24N 49°11' W 123°52'0 0.4
2015-Jun-28 00:22N 49°11' W 123°52'2 2.0
2015-Jun-27 23:33N 49°10' W 123°54'1 1.3
2015-Jun-27 22:33N 49°10' W 123°56'3 2.8
2015-Jun-27 21:31N 49°11' W 123°52'1 0.9
2015-Jun-27 20:33N 49°11' W 123°53'1 0.8
2015-Jun-27 19:33N 49°11' W 123°52'0 0.0
2015-Jun-27 18:33N 49°11' W 123°52'3 2.9
2015-Jun-27 17:34N 49°10' W 123°56'1 0.8
2015-Jun-27 16:33N 49°10' W 123°55'2 1.9
2015-Jun-27 15:32N 49°11' W 123°52'0 0.2
2015-Jun-27 14:32N 49°11' W 123°52'3 2.8
2015-Jun-27 13:33N 49°10' W 123°56'3 2.8
2015-Jun-27 12:33N 49°11' W 123°52'0 0.0
2015-Jun-27 11:33N 49°11' W 123°52'0 0.0
2015-Jun-27 10:30N 49°11' W 123°52'0 0.0
2015-Jun-27 09:33N 49°11' W 123°52'0 0.0
2015-Jun-27 06:29N 49°11' W 123°52'0 0.0
2015-Jun-27 05:33N 49°11' W 123°52'0 0.0
2015-Jun-27 04:33N 49°11' W 123°52'1 1.3
2015-Jun-27 03:34N 49°11' W 123°53'1 0.7
2015-Jun-27 02:33N 49°11' W 123°52'0 0.5
2015-Jun-27 01:33N 49°11' W 123°52'0 0.0
2015-Jun-27 00:33N 49°11' W 123°52'2 2.3
2015-Jun-26 23:33N 49°10' W 123°55'1 0.6
2015-Jun-26 22:33N 49°10' W 123°56'1 1.0
2015-Jun-26 21:33N 49°10' W 123°54'2 1.7
2015-Jun-26 20:33N 49°11' W 123°52'0 0.2
2015-Jun-26 19:33N 49°11' W 123°52'2 1.9
2015-Jun-26 18:33N 49°10' W 123°54'1 1.0
2015-Jun-26 17:33N 49°10' W 123°56'1 0.7
2015-Jun-26 16:33N 49°10' W 123°55'2 2.1
2015-Jun-26 15:32N 49°11' W 123°52'0 0.0
2015-Jun-26 14:33N 49°11' W 123°52'2 2.3
2015-Jun-26 13:33N 49°10' W 123°55'2 2.2
2015-Jun-26 12:31N 49°11' W 123°52'0 0.0
2015-Jun-26 11:16N 49°11' W 123°52'0 0.0
2015-Jun-26 10:28N 49°11' W 123°52'0 0.0
2015-Jun-26 09:31N 49°11' W 123°52'0 0.0
2015-Jun-26 06:24N 49°11' W 123°52'0 0.4
2015-Jun-26 05:33N 49°11' W 123°52'0 0.1
2015-Jun-26 04:33N 49°11' W 123°52'1 0.8
2015-Jun-26 03:33N 49°11' W 123°53'0 0.0
2015-Jun-26 02:33N 49°11' W 123°53'1 0.9
2015-Jun-26 01:32N 49°11' W 123°52'0 0.2
2015-Jun-26 00:25N 49°11' W 123°52'1 1.6
2015-Jun-25 23:33N 49°10' W 123°54'1 1.5
2015-Jun-25 22:33N 49°10' W 123°56'1 0.9
2015-Jun-25 21:33N 49°10' W 123°54'2 1.5
2015-Jun-25 20:33N 49°11' W 123°52'0 0.5
2015-Jun-25 19:33N 49°11' W 123°52'1 0.5
2015-Jun-25 18:33N 49°11' W 123°52'2 2.4
2015-Jun-25 17:33N 49°10' W 123°56'0 0.2
2015-Jun-25 16:33N 49°10' W 123°56'3 2.7
2015-Jun-25 15:33N 49°11' W 123°52'0 0.1
2015-Jun-25 14:33N 49°11' W 123°52'2 2.4
2015-Jun-25 13:34N 49°10' W 123°55'2 0.3
2015-Jun-25 06:30N 49°11' W 123°52'3 2.9
2015-Jun-25 05:30N 49°10' W 123°56'3 2.7
2015-Jun-25 04:34N 49°11' W 123°52'1 0.9
2015-Jun-25 03:33N 49°10' W 123°53'1 0.7
2015-Jun-25 02:33N 49°11' W 123°52'1 0.5
2015-Jun-25 01:33N 49°11' W 123°52'0 0.0
2015-Jun-25 00:33N 49°11' W 123°52'  
Track history (hours):
 
Tides and Currents Weather Stations Pressure Air Temp Water Temp Dewpoint Dewpoint Depression Visibility Wind Speed Wind Dir Waves Ship Positions

Quinsam

Last reported at 2015-Jul-04 23:34 UTC. Time now 2015-Jul-05 00:11 UTC.
Position N 49°10' W 123°54'.

Length 88 m; draft 1.5 m.

Type: Ship. MMSI: 316001266.

Date/timePositionNaut miles runAvg speedWind from/ knotsBaromVisibWave heightAir tempDewpointWater temp
2015-Jul-04 23:34N 49°10' W 123°54'1 1.1
2015-Jul-04 22:34N 49°10' W 123°56'3 2.4
2015-Jul-04 21:21N 49°11' W 123°52'1 0.6
2015-Jul-04 20:34N 49°11' W 123°52'1 0.5
2015-Jul-04 19:33N 49°11' W 123°52'2 2.1
2015-Jul-04 18:33N 49°10' W 123°55'1 0.8
2015-Jul-04 17:33N 49°10' W 123°56'1 0.6
2015-Jul-04 16:34N 49°10' W 123°55'2 1.9
2015-Jul-04 15:33N 49°11' W 123°52'0 0.5
2015-Jul-04 14:33N 49°11' W 123°52'3 2.9
2015-Jul-04 13:34N 49°10' W 123°56'3 2.9
2015-Jul-04 12:33N 49°11' W 123°52'0 0.0
2015-Jul-04 11:27N 49°11' W 123°52'0 0.0
2015-Jul-04 10:33N 49°11' W 123°52'0 0.0
2015-Jul-04 09:15N 49°11' W 123°52'0 0.0
2015-Jul-04 08:33N 49°11' W 123°52'0 0.0
2015-Jul-04 07:24N 49°11' W 123°52'0 0.0
2015-Jul-04 06:33N 49°11' W 123°52'0 0.1
2015-Jul-04 05:33N 49°11' W 123°52'0 0.1
2015-Jul-04 04:33N 49°11' W 123°52'0 0.0
2015-Jul-04 03:31N 49°11' W 123°52'2 2.5
2015-Jul-04 02:33N 49°10' W 123°55'1 1.1
2015-Jul-04 01:33N 49°10' W 123°53'1 1.3
2015-Jul-04 00:33N 49°11' W 123°52'1 1.4
2015-Jul-03 23:33N 49°10' W 123°54'2 1.5
2015-Jul-03 22:33N 49°10' W 123°56'1 1.0
2015-Jul-03 21:33N 49°10' W 123°54'2 1.9
2015-Jul-03 20:33N 49°11' W 123°52'0 0.0
2015-Jul-03 19:33N 49°11' W 123°52'2 2.3
2015-Jul-03 18:33N 49°10' W 123°55'1 0.6
2015-Jul-03 17:33N 49°10' W 123°56'1 1.3
2015-Jul-03 16:33N 49°10' W 123°54'2 1.6
2015-Jul-03 15:33N 49°11' W 123°52'0 0.0
2015-Jul-03 14:31N 49°11' W 123°52'2 2.6
2015-Jul-03 13:33N 49°10' W 123°55'2 2.3
2015-Jul-03 12:30N 49°11' W 123°52'0 0.0
2015-Jul-03 11:33N 49°11' W 123°52'0 0.0
2015-Jul-03 10:33N 49°11' W 123°52'0 0.0
2015-Jul-03 09:33N 49°11' W 123°52'0 0.0
2015-Jul-03 08:24N 49°11' W 123°52'0 0.0
2015-Jul-03 07:30N 49°11' W 123°52'0 0.0
2015-Jul-03 06:30N 49°11' W 123°52'0 0.0
2015-Jul-03 05:33N 49°11' W 123°52'0 0.0
2015-Jul-03 04:33N 49°11' W 123°52'1 1.1
2015-Jul-03 03:33N 49°10' W 123°53'2 1.5
2015-Jul-03 02:33N 49°10' W 123°56'0 0.2
2015-Jul-03 01:33N 49°10' W 123°56'0 0.0
2015-Jul-03 00:33N 49°10' W 123°56'3 2.8
2015-Jul-02 23:34N 49°11' W 123°52'0 0.1
2015-Jul-02 22:33N 49°11' W 123°52'2 2.5
2015-Jul-02 21:34N 49°10' W 123°55'0 0.5
2015-Jul-02 20:33N 49°10' W 123°56'3 2.9
2015-Jul-02 19:33N 49°11' W 123°52'0 0.0
2015-Jul-02 18:33N 49°11' W 123°52'3 2.6
2015-Jul-02 17:34N 49°10' W 123°55'0 0.3
2015-Jul-02 16:32N 49°10' W 123°56'3 2.9
2015-Jul-02 15:34N 49°11' W 123°52'0 0.1
2015-Jul-02 14:31N 49°11' W 123°52'2 2.5
2015-Jul-02 13:33N 49°10' W 123°55'2 2.1
2015-Jul-02 12:27N 49°11' W 123°52'0 0.0
2015-Jul-02 11:33N 49°11' W 123°52'0 0.0
2015-Jul-02 10:12N 49°11' W 123°52'0 0.0
2015-Jul-02 09:30N 49°11' W 123°52'0 0.0
2015-Jul-02 08:33N 49°11' W 123°52'0 0.0
2015-Jul-02 07:33N 49°11' W 123°52'0 0.0
2015-Jul-02 06:26N 49°11' W 123°52'3 3.3
2015-Jul-02 05:33N 49°10' W 123°56'3 2.5
2015-Jul-02 04:33N 49°11' W 123°52'0 0.3
2015-Jul-02 03:33N 49°11' W 123°53'0 0.0
2015-Jul-02 02:33N 49°11' W 123°53'1 0.7
2015-Jul-02 01:33N 49°11' W 123°52'0 0.0
2015-Jul-02 00:33N 49°11' W 123°52'1 1.3
2015-Jul-01 23:33N 49°10' W 123°54'2 1.6
2015-Jul-01 22:33N 49°10' W 123°56'1 1.1
2015-Jul-01 21:33N 49°10' W 123°54'2 1.7
2015-Jul-01 20:31N 49°11' W 123°52'0 0.1
2015-Jul-01 19:32N 49°11' W 123°52'2 1.8
2015-Jul-01 18:33N 49°10' W 123°54'1 1.1
2015-Jul-01 17:29N 49°10' W 123°56'1 1.0
2015-Jul-01 16:33N 49°10' W 123°54'2 1.9
2015-Jul-01 15:31N 49°11' W 123°52'0 0.0
2015-Jul-01 14:14N 49°11' W 123°52'2 3.3
2015-Jul-01 13:33N 49°10' W 123°55'2 2.2
2015-Jul-01 12:32N 49°11' W 123°52'0 0.0
2015-Jul-01 10:14N 49°11' W 123°52'0 0.0
2015-Jul-01 09:29N 49°11' W 123°52'0 0.0
2015-Jul-01 08:29N 49°11' W 123°52'0 0.0
2015-Jul-01 07:29N 49°11' W 123°52'0 0.0
2015-Jul-01 06:32N 49°11' W 123°52'0 0.0
2015-Jul-01 05:32N 49°11' W 123°52'0 0.0
2015-Jul-01 04:32N 49°11' W 123°52'1 0.9
2015-Jul-01 03:33N 49°10' W 123°53'2 2.0
2015-Jul-01 02:33N 49°10' W 123°56'1 1.0
2015-Jul-01 01:33N 49°10' W 123°54'2 1.7
2015-Jul-01 00:33N 49°11' W 123°52'0 0.3
2015-Jun-30 23:33N 49°11' W 123°52'1 1.4
2015-Jun-30 22:33N 49°10' W 123°54'1 1.5
2015-Jun-30 21:33N 49°10' W 123°56'1 1.0
2015-Jun-30 20:33N 49°10' W 123°54'2 2.0
2015-Jun-30 19:33N 49°11' W 123°52'2 2.1
2015-Jun-30 18:33N 49°10' W 123°55'1 0.7
2015-Jun-30 17:33N 49°10' W 123°56'1 0.6
2015-Jun-30 16:33N 49°10' W 123°55'2 2.3
2015-Jun-30 15:33N 49°11' W 123°52'0 0.1
2015-Jun-30 14:33N 49°11' W 123°52'2 2.4
2015-Jun-30 13:33N 49°10' W 123°55'2 2.1
2015-Jun-30 12:22N 49°11' W 123°52'0 0.0
2015-Jun-30 11:28N 49°11' W 123°52'0 0.0
2015-Jun-30 07:28N 49°11' W 123°52'0 0.0
2015-Jun-30 06:28N 49°11' W 123°52'1 0.6
2015-Jun-30 05:34N 49°11' W 123°52'0 0.1
2015-Jun-30 04:33N 49°11' W 123°52'1 0.6
2015-Jun-30 03:33N 49°10' W 123°53'1 0.7
2015-Jun-30 02:34N 49°11' W 123°52'0 0.3
2015-Jun-30 01:33N 49°11' W 123°52'0 0.0
2015-Jun-30 00:27N 49°11' W 123°52'1 1.1
2015-Jun-29 23:33N 49°10' W 123°53'2 1.9
2015-Jun-29 22:34N 49°10' W 123°56'0 0.0
2015-Jun-29 21:31N 49°10' W 123°56'2 1.7
2015-Jun-29 20:33N 49°11' W 123°54'1 1.3
2015-Jun-29 19:33N 49°11' W 123°52'2 1.7
2015-Jun-29 18:33N 49°10' W 123°54'1 1.2
2015-Jun-29 17:33N 49°10' W 123°56'1 0.9
2015-Jun-29 16:34N 49°10' W 123°54'2 2.0
2015-Jun-29 15:33N 49°11' W 123°52'0 0.0
2015-Jun-29 14:32N 49°11' W 123°52'3 2.8
2015-Jun-29 13:33N 49°10' W 123°56'3 2.4
2015-Jun-29 12:26N 49°11' W 123°52'0 0.0
2015-Jun-29 09:08N 49°11' W 123°52'0 0.0
2015-Jun-29 08:08N 49°11' W 123°52'0 0.0
2015-Jun-29 06:26N 49°11' W 123°52'1 0.6
2015-Jun-29 05:33N 49°11' W 123°52'1 0.4
2015-Jun-29 04:24N 49°11' W 123°52'1 1.1
2015-Jun-29 03:33N 49°11' W 123°53'0 0.5
2015-Jun-29 02:33N 49°11' W 123°52'1 0.5
2015-Jun-29 01:33N 49°11' W 123°52'0 0.0
2015-Jun-29 00:32N 49°11' W 123°52'2 1.8
2015-Jun-28 23:33N 49°10' W 123°54'1 1.0
2015-Jun-28 22:26N 49°10' W 123°56'3 3.3
2015-Jun-28 21:33N 49°11' W 123°52'0 0.0
2015-Jun-28 20:33N 49°11' W 123°52'0 0.0
2015-Jun-28 19:31N 49°11' W 123°52'2 1.9
2015-Jun-28 18:33N 49°10' W 123°54'1 1.0
2015-Jun-28 17:26N 49°10' W 123°56'1 1.1
2015-Jun-28 16:33N 49°10' W 123°54'1 1.3
2015-Jun-28 15:28N 49°11' W 123°52'1 1.2
2015-Jun-28 14:33N 49°11' W 123°54'1 0.9
2015-Jun-28 13:33N 49°10' W 123°55'2 2.0
2015-Jun-28 12:23N 49°11' W 123°52'0 0.0
2015-Jun-28 10:29N 49°11' W 123°52'0 0.0
2015-Jun-28 06:29N 49°11' W 123°52'0 0.0
2015-Jun-28 05:24N 49°11' W 123°52'0 0.2
2015-Jun-28 04:32N 49°11' W 123°52'1 1.0
2015-Jun-28 03:33N 49°10' W 123°53'0 0.4
2015-Jun-28 02:29N 49°11' W 123°53'0 0.3
2015-Jun-28 01:24N 49°11' W 123°52'0 0.4
2015-Jun-28 00:22N 49°11' W 123°52'2 2.0
2015-Jun-27 23:33N 49°10' W 123°54'1 1.3
2015-Jun-27 22:33N 49°10' W 123°56'3 2.8
2015-Jun-27 21:31N 49°11' W 123°52'1 0.9
2015-Jun-27 20:33N 49°11' W 123°53'1 0.8
2015-Jun-27 19:33N 49°11' W 123°52'0 0.0
2015-Jun-27 18:33N 49°11' W 123°52'3 2.9
2015-Jun-27 17:34N 49°10' W 123°56'1 0.8
2015-Jun-27 16:33N 49°10' W 123°55'2 1.9
2015-Jun-27 15:32N 49°11' W 123°52'0 0.2
2015-Jun-27 14:32N 49°11' W 123°52'3 2.8
2015-Jun-27 13:33N 49°10' W 123°56'3 2.8
2015-Jun-27 12:33N 49°11' W 123°52'0 0.0
2015-Jun-27 11:33N 49°11' W 123°52'0 0.0
2015-Jun-27 10:30N 49°11' W 123°52'0 0.0
2015-Jun-27 09:33N 49°11' W 123°52'0 0.0
2015-Jun-27 06:29N 49°11' W 123°52'0 0.0
2015-Jun-27 05:33N 49°11' W 123°52'0 0.0
2015-Jun-27 04:33N 49°11' W 123°52'1 1.3
2015-Jun-27 03:34N 49°11' W 123°53'1 0.7
2015-Jun-27 02:33N 49°11' W 123°52'0 0.5
2015-Jun-27 01:33N 49°11' W 123°52'0 0.0
2015-Jun-27 00:33N 49°11' W 123°52'2 2.3
2015-Jun-26 23:33N 49°10' W 123°55'1 0.6
2015-Jun-26 22:33N 49°10' W 123°56'1 1.0
2015-Jun-26 21:33N 49°10' W 123°54'2 1.7
2015-Jun-26 20:33N 49°11' W 123°52'0 0.2
2015-Jun-26 19:33N 49°11' W 123°52'2 1.9
2015-Jun-26 18:33N 49°10' W 123°54'1 1.0
2015-Jun-26 17:33N 49°10' W 123°56'1 0.7
2015-Jun-26 16:33N 49°10' W 123°55'2 2.1
2015-Jun-26 15:32N 49°11' W 123°52'0 0.0
2015-Jun-26 14:33N 49°11' W 123°52'2 2.3
2015-Jun-26 13:33N 49°10' W 123°55'2 2.2
2015-Jun-26 12:31N 49°11' W 123°52'0 0.0
2015-Jun-26 11:16N 49°11' W 123°52'0 0.0
2015-Jun-26 10:28N 49°11' W 123°52'0 0.0
2015-Jun-26 09:31N 49°11' W 123°52'0 0.0
2015-Jun-26 06:24N 49°11' W 123°52'0 0.4
2015-Jun-26 05:33N 49°11' W 123°52'0 0.1
2015-Jun-26 04:33N 49°11' W 123°52'1 0.8
2015-Jun-26 03:33N 49°11' W 123°53'0 0.0
2015-Jun-26 02:33N 49°11' W 123°53'1 0.9
2015-Jun-26 01:32N 49°11' W 123°52'0 0.2
2015-Jun-26 00:25N 49°11' W 123°52'1 1.6
2015-Jun-25 23:33N 49°10' W 123°54'1 1.5
2015-Jun-25 22:33N 49°10' W 123°56'1 0.9
2015-Jun-25 21:33N 49°10' W 123°54'2 1.5
2015-Jun-25 20:33N 49°11' W 123°52'0 0.5
2015-Jun-25 19:33N 49°11' W 123°52'1 0.5
2015-Jun-25 18:33N 49°11' W 123°52'2 2.4
2015-Jun-25 17:33N 49°10' W 123°56'0 0.2
2015-Jun-25 16:33N 49°10' W 123°56'3 2.7
2015-Jun-25 15:33N 49°11' W 123°52'0 0.1
2015-Jun-25 14:33N 49°11' W 123°52'2 2.4
2015-Jun-25 13:34N 49°10' W 123°55'2 0.3
2015-Jun-25 06:30N 49°11' W 123°52'3 2.9
2015-Jun-25 05:30N 49°10' W 123°56'3 2.7
2015-Jun-25 04:34N 49°11' W 123°52'1 0.9
2015-Jun-25 03:33N 49°10' W 123°53'1 0.7
2015-Jun-25 02:33N 49°11' W 123°52'1 0.5
2015-Jun-25 01:33N 49°11' W 123°52'0 0.0
2015-Jun-25 00:33N 49°11' W 123°52'  

Dump ship's entire track history